Time;durP1;ratioP1;P1;durP2;ratioP2;P2;SDS_P1;SDS_P2;PMS_P1;PMS_P2;Temp;Humidity;BMP_temperature;BMP_pressure;BME280_temperature;BME280_humidity;BME280_pressure;Samples;Min_cycle;Max_cycle;Signal;HPM_P1;HPM_P2
2023/03/20 00:01:22;;;;;;;8.18;4.63;;;10.80;99.90;;;;;;6135121;23;20016;-78
2023/03/20 00:03:50;;;;;;;8.52;5.57;;;10.40;99.90;;;;;;6159502;23;20010;-79
2023/03/20 00:06:21;;;;;;;6.32;4.90;;;10.40;99.90;;;;;;6133591;23;20010;-78
2023/03/20 00:08:50;;;;;;;9.68;5.90;;;11.00;99.90;;;;;;6135759;23;20093;-77
2023/03/20 00:11:32;;;;;;;11.15;5.57;;;10.40;99.90;;;;;;6135765;23;20039;-76
2023/03/20 00:14:02;;;;;;;9.38;5.60;;;10.90;99.90;;;;;;6111379;23;20286;-78
2023/03/20 00:16:40;;;;;;;8.35;4.60;;;10.90;99.90;;;;;;6113837;23;20013;-77
2023/03/20 00:19:24;;;;;;;7.57;5.45;;;10.80;99.90;;;;;;6112752;23;20021;-78
2023/03/20 00:21:54;;;;;;;7.65;5.45;;;10.40;99.90;;;;;;6111419;23;20016;-77
2023/03/20 00:24:23;;;;;;;13.20;6.05;;;10.40;99.90;;;;;;6138321;23;20363;-77
2023/03/20 00:26:50;;;;;;;8.73;5.65;;;10.70;99.90;;;;;;6137876;23;20010;-78
2023/03/20 00:29:25;;;;;;;9.60;5.45;;;10.40;99.90;;;;;;6138297;23;20014;-79
2023/03/20 00:31:54;;;;;;;9.57;4.60;;;10.20;99.90;;;;;;6112388;23;20028;-77
2023/03/20 00:34:27;;;;;;;7.65;4.60;;;10.40;99.90;;;;;;6137325;23;20228;-77
2023/03/20 00:36:59;;;;;;;9.48;4.80;;;10.40;99.90;;;;;;6111901;23;20100;-78
2023/03/20 00:39:25;;;;;;;8.18;5.03;;;10.30;99.90;;;;;;6161881;23;20454;-77
2023/03/20 00:41:52;;;;;;;6.88;5.10;;;10.70;99.90;;;;;;6160471;23;20013;-79
2023/03/20 00:44:30;;;;;;;8.25;5.47;;;10.30;99.90;;;;;;6138273;23;20157;-77
2023/03/20 00:47:02;;;;;;;7.20;5.30;;;10.30;99.90;;;;;;6113115;23;20064;-78
2023/03/20 00:49:32;;;;;;;7.80;4.45;;;10.60;99.90;;;;;;6113450;23;20020;-78
2023/03/20 00:51:58;;;;;;;7.97;5.07;;;10.60;99.90;;;;;;6137289;23;20013;-77
2023/03/20 00:54:28;;;;;;;6.50;4.53;;;10.40;99.90;;;;;;6161458;23;20020;-76
2023/03/20 00:57:12;;;;;;;5.50;3.92;;;10.60;99.90;;;;;;6137194;23;20010;-77
2023/03/20 01:00:01;;;;;;;6.90;4.13;;;10.10;99.90;;;;;;6137782;23;20072;-77
2023/03/20 01:02:30;;;;;;;6.00;3.97;;;10.10;99.90;;;;;;6136791;23;20240;-78
2023/03/20 01:05:00;;;;;;;7.95;3.83;;;10.60;99.90;;;;;;6137044;23;20024;-77
2023/03/20 01:07:29;;;;;;;7.53;4.55;;;10.20;99.90;;;;;;6136798;23;20255;-76
2023/03/20 01:09:55;;;;;;;9.75;5.05;;;10.60;99.90;;;;;;6159301;23;20014;-78
2023/03/20 01:12:21;;;;;;;7.70;5.50;;;10.60;99.90;;;;;;6135050;23;20044;-77
2023/03/20 01:14:53;;;;;;;7.20;5.22;;;10.60;99.90;;;;;;6112573;23;20073;-76
2023/03/20 01:17:21;;;;;;;6.32;5.15;;;10.10;99.90;;;;;;6113365;23;20017;-77
2023/03/20 01:19:49;;;;;;;7.43;4.65;;;10.60;99.90;;;;;;6137118;23;20069;-77
2023/03/20 01:22:16;;;;;;;8.98;5.13;;;10.10;99.90;;;;;;6111574;23;20017;-77
2023/03/20 01:24:42;;;;;;;7.70;4.60;;;10.20;99.90;;;;;;6137076;23;20010;-77
2023/03/20 01:27:14;;;;;;;8.77;5.28;;;10.20;99.90;;;;;;6137074;23;20096;-78
2023/03/20 01:29:40;;;;;;;5.70;4.40;;;10.30;99.90;;;;;;6112225;23;20073;-78
2023/03/20 01:32:16;;;;;;;7.40;4.85;;;10.40;99.90;;;;;;6161286;23;20025;-75
2023/03/20 01:34:42;;;;;;;10.05;5.13;;;9.90;99.90;;;;;;6162283;23;20304;-77
2023/03/20 01:37:16;;;;;;;7.05;4.25;;;10.60;99.90;;;;;;6137158;23;20040;-77
2023/03/20 01:39:42;;;;;;;6.85;4.28;;;10.20;99.90;;;;;;6113330;23;20021;-77
2023/03/20 01:42:10;;;;;;;7.25;4.65;;;10.20;99.90;;;;;;6110727;23;20017;-77
2023/03/20 01:44:39;;;;;;;9.20;4.72;;;10.40;99.90;;;;;;6136274;23;20264;-77
2023/03/20 01:47:16;;;;;;;8.95;4.95;;;10.10;99.90;;;;;;6136003;23;20013;-77
2023/03/20 01:50:01;;;;;;;10.13;4.75;;;10.40;99.90;;;;;;6161240;23;20069;-77
2023/03/20 01:52:27;;;;;;;9.73;4.85;;;10.60;99.90;;;;;;6137106;23;20013;-78
2023/03/20 01:54:53;;;;;;;8.43;4.80;;;10.10;99.90;;;;;;6161504;23;20021;-78
2023/03/20 01:57:23;;;;;;;9.55;5.68;;;10.50;99.90;;;;;;6161776;23;20069;-77
2023/03/20 02:00:02;;;;;;;10.02;4.80;;;10.40;99.90;;;;;;6136453;23;20200;-77
2023/03/20 02:02:30;;;;;;;11.73;5.55;;;10.60;99.90;;;;;;6135740;23;20009;-77
2023/03/20 02:05:06;;;;;;;11.32;5.18;;;10.10;99.90;;;;;;6135837;23;20013;-78
2023/03/20 02:07:33;;;;;;;10.57;5.45;;;9.10;99.90;;;;;;6112604;23;20087;-78
2023/03/20 02:10:10;;;;;;;9.07;5.70;;;10.20;99.90;;;;;;6135727;23;20013;-77
2023/03/20 02:12:37;;;;;;;9.45;5.00;;;10.00;99.90;;;;;;6134749;23;20025;-77
2023/03/20 02:15:05;;;;;;;11.38;5.93;;;10.10;99.90;;;;;;6159068;23;20021;-75
2023/03/20 02:17:30;;;;;;;8.60;5.95;;;10.80;99.90;;;;;;6159683;23;20020;-76
2023/03/20 02:20:08;;;;;;;9.85;5.65;;;10.70;99.90;;;;;;6158342;23;20024;-75
2023/03/20 02:23:06;;;;;;;10.27;5.97;;;10.70;99.90;;;;;;6135610;23;20048;-77
2023/03/20 02:25:47;;;;;;;11.77;6.43;;;10.70;99.90;;;;;;6136516;23;20013;-78
2023/03/20 02:28:27;;;;;;;12.68;6.13;;;10.60;99.90;;;;;;6136438;23;20076;-77
2023/03/20 02:30:59;;;;;;;11.77;6.68;;;10.70;99.90;;;;;;6110817;23;20295;-75
2023/03/20 02:34:00;;;;;;;10.93;5.85;;;10.50;99.90;;;;;;6161490;23;20009;-77
2023/03/20 02:37:04;;;;;;;12.15;6.72;;;10.20;99.90;;;;;;6161159;23;20009;-76
2023/03/20 02:40:20;;;;;;;10.82;6.03;;;10.60;99.90;;;;;;6135817;23;20013;-78
2023/03/20 02:43:15;;;;;;;13.18;6.60;;;10.30;99.90;;;;;;6135365;23;20351;-77
2023/03/20 02:46:01;;;;;;;16.05;7.20;;;10.90;99.90;;;;;;6160841;23;20009;-76
2023/03/20 02:48:41;;;;;;;13.57;6.88;;;10.90;99.90;;;;;;6136741;23;20037;-76
2023/03/20 02:51:29;;;;;;;14.23;7.00;;;11.00;99.90;;;;;;6135629;23;20411;-77
2023/03/20 02:54:26;;;;;;;15.05;7.18;;;11.00;99.90;;;;;;6136086;23;20010;-76
2023/03/20 02:57:04;;;;;;;15.55;7.03;;;10.70;99.90;;;;;;6160961;23;20036;-76
2023/03/20 02:59:58;;;;;;;13.63;6.63;;;10.50;99.90;;;;;;6185886;23;20067;-76
2023/03/20 03:02:55;;;;;;;13.30;7.43;;;10.90;99.90;;;;;;6183206;23;20009;-76
2023/03/20 03:05:26;;;;;;;19.65;9.02;;;10.30;99.90;;;;;;6133835;23;20072;-77
2023/03/20 03:07:58;;;;;;;17.23;7.40;;;10.30;99.90;;;;;;6135323;23;20057;-77
2023/03/20 03:10:32;;;;;;;18.58;7.70;;;11.20;99.90;;;;;;6111592;23;20016;-75
2023/03/20 03:13:01;;;;;;;17.00;7.45;;;10.50;99.90;;;;;;6184767;23;20059;-75
2023/03/20 03:15:37;;;;;;;16.02;7.78;;;11.10;99.90;;;;;;6160947;23;20021;-76
2023/03/20 03:18:06;;;;;;;15.05;7.53;;;11.00;99.90;;;;;;6158588;23;20049;-76
2023/03/20 03:20:37;;;;;;;15.27;7.60;;;10.30;99.90;;;;;;6111495;23;20064;-78
2023/03/20 03:23:05;;;;;;;21.92;7.47;;;11.00;99.90;;;;;;6135584;23;20217;-77
2023/03/20 03:25:39;;;;;;;19.52;8.43;;;10.40;99.90;;;;;;6136524;23;20072;-77
2023/03/20 03:28:08;;;;;;;18.73;7.53;;;10.30;99.90;;;;;;6134851;23;20235;-76
2023/03/20 03:30:37;;;;;;;15.20;7.75;;;11.30;99.90;;;;;;6136156;23;20261;-77
2023/03/20 03:33:22;;;;;;;13.13;7.65;;;10.40;99.90;;;;;;6136195;23;20021;-77
2023/03/20 03:35:50;;;;;;;13.63;7.63;;;10.40;99.90;;;;;;6135316;23;20345;-78
2023/03/20 03:38:35;;;;;;;16.20;8.00;;;10.90;99.90;;;;;;6111652;23;20527;-78
2023/03/20 03:41:26;;;;;;;14.38;8.02;;;10.40;99.90;;;;;;6110667;23;20036;-77
2023/03/20 03:44:07;;;;;;;14.63;8.70;;;10.90;99.90;;;;;;6109998;23;20343;-76
2023/03/20 03:46:48;;;;;;;15.80;8.68;;;10.80;99.90;;;;;;6134231;23;20021;-77
2023/03/20 03:49:29;;;;;;;15.18;8.18;;;11.10;99.90;;;;;;6137256;23;20016;-77
2023/03/20 03:52:00;;;;;;;16.45;8.48;;;11.00;99.90;;;;;;6110362;23;20339;-77
2023/03/20 03:54:36;;;;;;;14.88;9.15;;;11.30;99.90;;;;;;6159990;23;20016;-76
2023/03/20 03:57:03;;;;;;;16.45;8.60;;;10.60;99.90;;;;;;6159933;23;20047;-78
2023/03/20 03:59:34;;;;;;;18.95;8.70;;;11.30;99.90;;;;;;6135748;23;20029;-77
2023/03/20 04:02:02;;;;;;;14.73;8.10;;;10.80;99.90;;;;;;6135401;23;20326;-76
2023/03/20 04:04:30;;;;;;;12.77;8.52;;;10.60;99.90;;;;;;6159483;23;20207;-76
2023/03/20 04:06:58;;;;;;;16.83;8.32;;;11.10;99.90;;;;;;6135088;23;20009;-77
2023/03/20 04:09:24;;;;;;;15.75;8.02;;;10.50;99.90;;;;;;6158931;23;20022;-77
2023/03/20 04:11:52;;;;;;;18.55;7.95;;;10.60;99.90;;;;;;6159033;23;20059;-77
2023/03/20 04:14:18;;;;;;;15.15;9.23;;;10.50;99.90;;;;;;6110892;23;20028;-78
2023/03/20 04:16:44;;;;;;;15.48;7.88;;;10.60;99.90;;;;;;6135115;23;20014;-77
2023/03/20 04:19:09;;;;;;;13.65;8.00;;;10.60;99.90;;;;;;6136606;23;20204;-77
2023/03/20 04:21:35;;;;;;;16.48;8.23;;;10.50;99.90;;;;;;6137704;23;20010;-77
2023/03/20 04:24:01;;;;;;;15.75;9.00;;;11.30;99.90;;;;;;6137091;23;20017;-77
2023/03/20 04:26:27;;;;;;;13.35;7.63;;;11.30;99.90;;;;;;6113174;23;20010;-77
2023/03/20 04:28:52;;;;;;;15.05;8.57;;;10.80;99.90;;;;;;6160067;23;20014;-76
2023/03/20 04:31:18;;;;;;;17.60;8.38;;;10.70;99.90;;;;;;6161258;23;20637;-77
2023/03/20 04:33:44;;;;;;;18.20;8.43;;;11.10;99.90;;;;;;6160730;23;20022;-77
2023/03/20 04:36:11;;;;;;;12.25;7.80;;;10.70;99.90;;;;;;6161035;23;20013;-77
2023/03/20 04:38:37;;;;;;;14.70;7.95;;;10.60;99.90;;;;;;6161329;23;20192;-78
2023/03/20 04:41:03;;;;;;;16.98;7.75;;;11.20;99.90;;;;;;6137214;23;20024;-77
2023/03/20 04:43:29;;;;;;;12.85;7.93;;;11.20;99.90;;;;;;6137696;23;20017;-79
2023/03/20 04:45:55;;;;;;;12.75;7.03;;;11.10;99.90;;;;;;6136750;23;20009;-79
2023/03/20 04:48:21;;;;;;;15.40;7.38;;;11.20;99.90;;;;;;6162037;23;20240;-79
2023/03/20 04:50:47;;;;;;;12.65;7.18;;;10.90;99.90;;;;;;6113795;23;20013;-79
2023/03/20 04:53:13;;;;;;;14.00;6.93;;;11.20;99.90;;;;;;6161977;23;20562;-77
2023/03/20 04:55:39;;;;;;;12.38;7.72;;;11.10;99.90;;;;;;6162740;23;20188;-79
2023/03/20 04:58:05;;;;;;;12.50;7.80;;;10.60;99.90;;;;;;6136945;23;20028;-77
2023/03/20 05:00:31;;;;;;;15.68;7.32;;;10.60;99.90;;;;;;6161940;23;20041;-78
2023/03/20 05:02:57;;;;;;;18.77;8.48;;;10.70;99.90;;;;;;6161343;23;20009;-77
2023/03/20 05:05:23;;;;;;;17.60;8.23;;;11.10;99.90;;;;;;6137656;23;20069;-79
2023/03/20 05:07:50;;;;;;;12.95;8.88;;;10.50;99.90;;;;;;6162607;23;20012;-78
2023/03/20 05:10:16;;;;;;;16.90;8.07;;;11.10;99.90;;;;;;6111867;23;20024;-77
2023/03/20 05:12:42;;;;;;;12.30;7.85;;;11.10;99.90;;;;;;6187176;23;20077;-79
2023/03/20 05:15:08;;;;;;;13.60;7.85;;;11.10;99.90;;;;;;6137069;23;20073;-80
2023/03/20 05:17:34;;;;;;;11.88;7.75;;;10.50;99.90;;;;;;6138072;23;20021;-79
2023/03/20 05:19:59;;;;;;;10.95;7.15;;;11.10;99.90;;;;;;6160405;23;20035;-76
2023/03/20 05:22:25;;;;;;;15.68;7.47;;;10.70;99.90;;;;;;6162217;23;20017;-78
2023/03/20 05:24:51;;;;;;;13.43;7.70;;;10.60;99.90;;;;;;6137156;23;20013;-77
2023/03/20 05:27:17;;;;;;;14.50;7.53;;;10.60;99.90;;;;;;6136978;23;20205;-77
2023/03/20 05:29:43;;;;;;;13.82;7.15;;;10.60;99.90;;;;;;6161962;23;20072;-77
2023/03/20 05:32:09;;;;;;;10.55;6.88;;;11.10;99.90;;;;;;6137218;23;20361;-77
2023/03/20 05:34:34;;;;;;;15.18;7.30;;;11.10;99.90;;;;;;6162164;23;20048;-81
2023/03/20 05:37:00;;;;;;;11.60;6.57;;;11.00;99.90;;;;;;6111518;23;20013;-76
2023/03/20 05:39:26;;;;;;;13.95;7.63;;;10.60;99.90;;;;;;6136722;23;20020;-75
2023/03/20 05:41:51;;;;;;;13.55;7.90;;;11.00;99.90;;;;;;6112028;23;20083;-76
2023/03/20 05:44:17;;;;;;;12.73;7.65;;;11.10;99.90;;;;;;6136833;23;20024;-77
2023/03/20 05:46:43;;;;;;;11.48;7.55;;;11.00;99.90;;;;;;6161984;23;20037;-79
2023/03/20 05:49:09;;;;;;;14.35;7.28;;;10.70;99.90;;;;;;6160935;23;20021;-76
2023/03/20 05:51:35;;;;;;;12.77;6.75;;;11.10;99.90;;;;;;6137004;23;20233;-75
2023/03/20 05:54:00;;;;;;;15.80;7.43;;;10.80;99.90;;;;;;6135513;23;20013;-78
2023/03/20 05:56:26;;;;;;;14.10;6.53;;;10.90;99.90;;;;;;6136595;23;20203;-77
2023/03/20 05:58:52;;;;;;;10.05;6.63;;;11.10;99.90;;;;;;6161287;23;20022;-75
2023/03/20 06:01:20;;;;;;;13.98;7.28;;;10.70;99.90;;;;;;6134094;23;20069;-75
2023/03/20 06:03:47;;;;;;;14.23;6.88;;;10.70;99.90;;;;;;6136308;23;20044;-78
2023/03/20 06:06:13;;;;;;;11.48;6.82;;;10.90;99.90;;;;;;6160530;23;20016;-77
2023/03/20 06:08:39;;;;;;;12.30;6.80;;;11.00;99.90;;;;;;6161207;23;20044;-76
2023/03/20 06:11:05;;;;;;;11.80;6.90;;;10.70;99.90;;;;;;6135777;23;20013;-75
2023/03/20 06:13:31;;;;;;;12.95;6.72;;;11.10;99.90;;;;;;6161255;23;20480;-75
2023/03/20 06:15:56;;;;;;;12.65;6.82;;;11.00;99.90;;;;;;6136234;23;20060;-75
2023/03/20 06:18:22;;;;;;;11.18;6.90;;;10.60;99.90;;;;;;6135576;23;20009;-75
2023/03/20 06:20:56;;;;;;;14.60;7.32;;;10.90;99.90;;;;;;6135542;23;20021;-76
2023/03/20 06:23:22;;;;;;;13.95;7.75;;;10.60;99.90;;;;;;6160569;23;20354;-76
2023/03/20 06:25:48;;;;;;;11.95;6.88;;;10.70;99.90;;;;;;6160684;23;20017;-76
2023/03/20 06:28:14;;;;;;;13.43;7.22;;;10.80;99.90;;;;;;6108951;23;20017;-75
2023/03/20 06:30:40;;;;;;;12.27;6.85;;;10.90;99.90;;;;;;6135891;23;20021;-76
2023/03/20 06:33:06;;;;;;;15.05;7.40;;;11.00;99.90;;;;;;6110531;23;20082;-78
2023/03/20 06:35:32;;;;;;;10.57;6.95;;;10.90;99.90;;;;;;6135011;23;20021;-77
2023/03/20 06:37:58;;;;;;;14.35;7.35;;;11.10;99.90;;;;;;6135778;23;20020;-78
2023/03/20 06:40:26;;;;;;;13.48;8.38;;;10.60;99.90;;;;;;6160746;23;20029;-76
2023/03/20 06:42:52;;;;;;;12.55;7.15;;;10.80;99.90;;;;;;6111157;23;20072;-74
2023/03/20 06:45:18;;;;;;;13.00;7.20;;;10.70;99.90;;;;;;6110846;23;20037;-77
2023/03/20 06:47:45;;;;;;;9.65;6.97;;;10.90;99.90;;;;;;6111720;23;20052;-76
2023/03/20 06:50:12;;;;;;;12.65;7.57;;;11.10;99.90;;;;;;6111182;23;20010;-77
2023/03/20 06:52:38;;;;;;;13.60;7.82;;;11.10;99.90;;;;;;6134096;23;20036;-75
2023/03/20 06:55:05;;;;;;;11.70;7.55;;;10.70;99.90;;;;;;6134745;23;20212;-74
2023/03/20 06:57:31;;;;;;;12.98;7.97;;;11.10;99.90;;;;;;6136058;23;20040;-76
2023/03/20 06:59:57;;;;;;;17.73;8.77;;;11.20;99.90;;;;;;6111290;23;20252;-77
2023/03/20 07:02:23;;;;;;;14.20;8.38;;;11.20;99.90;;;;;;6156384;23;20018;-76
2023/03/20 07:04:49;;;;;;;13.65;7.82;;;10.80;99.90;;;;;;6134276;23;20009;-75
2023/03/20 07:07:16;;;;;;;13.68;7.95;;;11.20;99.90;;;;;;6110580;23;20009;-78
2023/03/20 07:09:42;;;;;;;19.25;8.43;;;11.00;99.90;;;;;;6109539;23;20021;-77
2023/03/20 07:12:13;;;;;;;13.85;8.80;;;10.90;99.90;;;;;;6159832;23;20013;-76
2023/03/20 07:14:40;;;;;;;11.50;7.50;;;10.90;99.90;;;;;;6111159;23;20068;-75
2023/03/20 07:17:08;;;;;;;13.52;8.38;;;11.00;99.90;;;;;;6157633;23;20021;-75
2023/03/20 07:19:35;;;;;;;16.58;8.48;;;11.10;99.90;;;;;;6134803;23;20262;-77
2023/03/20 07:22:11;;;;;;;12.52;8.10;;;11.10;99.90;;;;;;6156733;23;20009;-76
2023/03/20 07:24:36;;;;;;;14.50;8.02;;;11.90;99.90;;;;;;6131604;23;20018;-74
2023/03/20 07:27:02;;;;;;;14.85;8.82;;;11.40;99.90;;;;;;6132019;23;20037;-75
2023/03/20 07:29:28;;;;;;;14.15;8.23;;;11.40;99.90;;;;;;6132954;23;20013;-73
2023/03/20 07:31:53;;;;;;;13.82;8.77;;;11.20;99.90;;;;;;6133875;23;20057;-73
2023/03/20 07:34:20;;;;;;;14.75;8.25;;;11.50;99.90;;;;;;6133252;23;20350;-74
2023/03/20 07:36:45;;;;;;;15.93;8.98;;;11.30;99.90;;;;;;6133057;23;20021;-77
2023/03/20 07:39:17;;;;;;;14.70;8.98;;;11.50;99.90;;;;;;6157687;23;20028;-75
2023/03/20 07:41:51;;;;;;;14.77;8.45;;;11.40;99.90;;;;;;6110535;23;20014;-74
2023/03/20 07:44:18;;;;;;;15.00;8.38;;;11.70;99.90;;;;;;6157256;23;20014;-76
2023/03/20 07:46:46;;;;;;;15.10;8.23;;;11.80;99.90;;;;;;6157971;23;20041;-75
2023/03/20 07:49:21;;;;;;;16.42;8.73;;;11.50;99.90;;;;;;6133073;23;20255;-75
2023/03/20 07:51:49;;;;;;;13.10;8.40;;;11.90;99.90;;;;;;6110306;23;20067;-74
2023/03/20 07:54:16;;;;;;;14.30;8.80;;;11.90;99.90;;;;;;6109496;23;20265;-74
2023/03/20 07:56:42;;;;;;;15.40;9.57;;;11.80;99.90;;;;;;6134222;23;20013;-73
2023/03/20 07:59:08;;;;;;;14.90;8.88;;;11.90;99.90;;;;;;6183477;23;20020;-75
2023/03/20 08:01:34;;;;;;;15.68;8.75;;;11.80;99.90;;;;;;6135430;23;20199;-73
2023/03/20 08:04:00;;;;;;;12.70;8.07;;;12.00;99.90;;;;;;6135028;23;20005;-72
2023/03/20 08:06:25;;;;;;;17.15;7.95;;;12.20;99.90;;;;;;6158694;23;20060;-74
2023/03/20 08:08:51;;;;;;;14.13;8.07;;;12.20;99.90;;;;;;6135485;23;20020;-76
2023/03/20 08:11:18;;;;;;;17.92;9.32;;;12.20;99.90;;;;;;6131858;23;20021;-75
2023/03/20 08:13:44;;;;;;;13.50;7.78;;;12.00;99.90;;;;;;6157861;23;20013;-76
2023/03/20 08:16:10;;;;;;;16.80;9.25;;;12.10;99.90;;;;;;6133475;23;20013;-73
2023/03/20 08:18:36;;;;;;;13.10;7.68;;;12.50;99.90;;;;;;6158500;23;20013;-75
2023/03/20 08:21:03;;;;;;;14.93;8.18;;;12.40;99.90;;;;;;6158382;23;20053;-75
2023/03/20 08:23:28;;;;;;;11.98;8.02;;;12.50;99.90;;;;;;6131368;23;20041;-75
2023/03/20 08:25:57;;;;;;;17.17;8.80;;;12.30;99.90;;;;;;6133730;23;20045;-77
2023/03/20 08:28:23;;;;;;;15.93;8.32;;;12.20;99.90;;;;;;6157370;23;20010;-75
2023/03/20 08:30:48;;;;;;;13.18;8.00;;;12.40;99.90;;;;;;6131843;23;20036;-76
2023/03/20 08:33:18;;;;;;;14.65;7.65;;;12.40;99.90;;;;;;6132300;23;20028;-72
2023/03/20 08:35:55;;;;;;;12.77;7.50;;;12.90;99.90;;;;;;6159777;23;20319;-73
2023/03/20 08:38:20;;;;;;;20.67;9.30;;;12.20;99.90;;;;;;6134622;23;20013;-77
2023/03/20 08:40:46;;;;;;;13.48;8.27;;;12.00;99.90;;;;;;6160170;23;20044;-76
2023/03/20 08:43:12;;;;;;;15.18;8.82;;;12.10;99.90;;;;;;6158986;23;20025;-73
2023/03/20 08:45:37;;;;;;;16.25;7.80;;;12.10;99.90;;;;;;6136892;23;20118;-75
2023/03/20 08:48:03;;;;;;;13.68;8.13;;;12.20;99.90;;;;;;6136748;23;20013;-74
2023/03/20 08:50:29;;;;;;;14.35;8.75;;;12.00;99.90;;;;;;6112032;23;20021;-73
2023/03/20 08:52:55;;;;;;;15.88;8.68;;;12.20;99.90;;;;;;6161263;23;20020;-74
2023/03/20 08:55:21;;;;;;;14.90;8.05;;;12.10;99.90;;;;;;6111075;23;20181;-73
2023/03/20 08:57:46;;;;;;;15.80;8.63;;;12.40;99.90;;;;;;6159564;23;20072;-72
2023/03/20 09:00:14;;;;;;;14.55;8.18;;;12.30;99.90;;;;;;6135731;23;20041;-74
2023/03/20 09:02:41;;;;;;;14.23;7.85;;;12.50;99.90;;;;;;6161077;23;20014;-76
2023/03/20 09:05:08;;;;;;;17.27;8.50;;;12.70;99.90;;;;;;6111791;23;20057;-74
2023/03/20 09:07:34;;;;;;;14.77;7.70;;;12.70;99.90;;;;;;6185941;23;20061;-74
2023/03/20 09:10:00;;;;;;;14.40;8.20;;;12.70;99.90;;;;;;6135937;23;20335;-76
2023/03/20 09:12:25;;;;;;;17.15;8.75;;;13.00;99.90;;;;;;6134787;23;20220;-75
2023/03/20 09:14:51;;;;;;;18.17;8.60;;;12.80;99.90;;;;;;6159925;23;20013;-77
2023/03/20 09:17:17;;;;;;;14.18;7.32;;;13.00;99.90;;;;;;6136551;23;20044;-75
2023/03/20 09:19:43;;;;;;;13.07;8.20;;;12.90;99.90;;;;;;6161431;23;20013;-75
2023/03/20 09:22:14;;;;;;;17.33;8.15;;;12.90;99.90;;;;;;6136752;23;20009;-73
2023/03/20 09:24:39;;;;;;;12.68;7.55;;;13.10;99.90;;;;;;6136421;23;20017;-71
2023/03/20 09:27:05;;;;;;;14.80;7.60;;;13.40;99.90;;;;;;6111673;23;20308;-75
2023/03/20 09:29:31;;;;;;;14.48;7.70;;;13.40;99.90;;;;;;6160726;23;20081;-74
2023/03/20 09:31:57;;;;;;;12.88;7.57;;;13.30;99.90;;;;;;6110635;23;20071;-72
2023/03/20 09:34:23;;;;;;;17.27;7.47;;;13.40;99.90;;;;;;6134994;23;20056;-74
2023/03/20 09:36:49;;;;;;;13.02;7.00;;;13.30;99.90;;;;;;6161323;23;20020;-75
2023/03/20 09:39:15;;;;;;;14.68;6.78;;;13.50;99.90;;;;;;6135932;23;20036;-75
2023/03/20 09:41:46;;;;;;;12.18;6.43;;;13.30;99.90;;;;;;6156737;23;20009;-73
2023/03/20 09:44:36;;;;;;;11.30;6.40;;;13.30;99.90;;;;;;6135752;23;20364;-74
2023/03/20 09:47:14;;;;;;;12.23;6.90;;;13.20;99.90;;;;;;6184651;23;20327;-77
2023/03/20 09:49:50;;;;;;;17.50;6.95;;;13.10;99.90;;;;;;6159648;23;20020;-73
2023/03/20 09:52:20;;;;;;;12.02;6.72;;;13.20;99.90;;;;;;6184363;23;20304;-74
2023/03/20 09:54:50;;;;;;;10.75;6.57;;;13.40;99.90;;;;;;6134616;23;20018;-75
2023/03/20 09:57:21;;;;;;;13.63;7.20;;;13.50;99.90;;;;;;6135627;23;20016;-75
2023/03/20 09:59:49;;;;;;;16.08;7.43;;;13.60;99.90;;;;;;6135162;23;20013;-72
2023/03/20 10:02:23;;;;;;;12.77;6.55;;;13.60;99.90;;;;;;6135394;23;20009;-72
2023/03/20 10:04:53;;;;;;;13.00;6.32;;;13.60;99.90;;;;;;6135571;23;20010;-73
2023/03/20 10:07:19;;;;;;;13.82;6.43;;;13.70;99.90;;;;;;6132953;23;20036;-74
2023/03/20 10:09:45;;;;;;;13.23;7.63;;;13.90;99.90;;;;;;6134437;23;20041;-73
2023/03/20 10:12:32;;;;;;;15.05;7.35;;;13.80;99.90;;;;;;6160279;23;20200;-74
2023/03/20 10:15:02;;;;;;;13.10;7.22;;;13.90;99.90;;;;;;6160081;23;20064;-74
2023/03/20 10:17:43;;;;;;;12.80;7.45;;;14.00;99.90;;;;;;6183958;23;20020;-75
2023/03/20 10:20:15;;;;;;;16.08;7.65;;;13.80;99.90;;;;;;6110824;23;20020;-76
2023/03/20 10:22:49;;;;;;;11.88;7.28;;;13.70;99.90;;;;;;6135657;23;20009;-74
2023/03/20 10:25:41;;;;;;;12.57;7.80;;;13.60;99.90;;;;;;6134466;23;20010;-73
2023/03/20 10:28:20;;;;;;;15.48;8.55;;;13.50;99.90;;;;;;6134359;23;20112;-75
2023/03/20 10:30:45;;;;;;;19.63;9.13;;;13.80;99.90;;;;;;6134504;23;20017;-75
2023/03/20 10:33:34;;;;;;;13.93;7.65;;;13.60;99.90;;;;;;6135524;23;20103;-74
2023/03/20 10:36:24;;;;;;;10.63;7.38;;;13.90;99.90;;;;;;6128990;23;20013;-73
2023/03/20 10:39:13;;;;;;;13.02;8.13;;;14.00;99.90;;;;;;6133569;23;20083;-75
2023/03/20 10:41:46;;;;;;;12.23;7.38;;;13.70;99.90;;;;;;6158467;23;20300;-72
2023/03/20 10:44:23;;;;;;;13.15;8.18;;;13.70;99.90;;;;;;6158292;23;20369;-74
2023/03/20 10:46:55;;;;;;;12.32;6.82;;;13.80;99.90;;;;;;6134700;23;20205;-74
2023/03/20 10:49:35;;;;;;;12.63;7.53;;;13.90;99.90;;;;;;6134562;23;20020;-72
2023/03/20 10:52:15;;;;;;;13.13;8.43;;;14.00;99.90;;;;;;6159585;23;20013;-73
2023/03/20 10:54:44;;;;;;;13.98;7.88;;;13.90;99.90;;;;;;6183201;23;20017;-71
2023/03/20 10:57:21;;;;;;;15.52;8.98;;;14.00;99.90;;;;;;6132956;23;20078;-73
2023/03/20 10:59:50;;;;;;;15.25;8.77;;;13.70;99.90;;;;;;6108595;23;20041;-75
2023/03/20 11:02:19;;;;;;;12.10;7.57;;;14.00;99.90;;;;;;6135338;23;20187;-74
2023/03/20 11:04:45;;;;;;;13.02;7.90;;;14.00;99.90;;;;;;6184419;23;20017;-74
2023/03/20 11:07:31;;;;;;;12.02;7.47;;;14.10;99.90;;;;;;6135015;23;20017;-72
2023/03/20 11:10:10;;;;;;;9.57;6.95;;;14.10;99.90;;;;;;6159066;23;20072;-73
2023/03/20 11:12:44;;;;;;;13.45;8.15;;;14.00;99.90;;;;;;6158011;23;20021;-74
2023/03/20 11:15:33;;;;;;;11.48;7.45;;;13.90;99.90;;;;;;6133557;23;20056;-75
2023/03/20 11:18:02;;;;;;;9.93;7.20;;;13.60;99.90;;;;;;6159247;23;20013;-74
2023/03/20 11:20:34;;;;;;;9.77;6.40;;;13.90;99.90;;;;;;6109627;23;20013;-73
2023/03/20 11:23:07;;;;;;;9.95;6.82;;;14.00;99.90;;;;;;6134785;23;20009;-71
2023/03/20 11:25:37;;;;;;;10.75;6.70;;;13.90;99.90;;;;;;6134681;23;20006;-71
2023/03/20 11:28:27;;;;;;;11.10;6.25;;;13.90;99.90;;;;;;6108908;23;20069;-73
2023/03/20 11:31:16;;;;;;;12.23;6.93;;;13.70;99.90;;;;;;6159144;23;20022;-73
2023/03/20 11:33:44;;;;;;;10.05;6.45;;;13.50;99.90;;;;;;6110516;23;20088;-72
2023/03/20 11:36:21;;;;;;;11.23;6.38;;;13.60;99.90;;;;;;6131797;23;20044;-73
2023/03/20 11:38:50;;;;;;;12.13;6.35;;;13.70;99.90;;;;;;6134896;23;20021;-76
2023/03/20 11:41:19;;;;;;;10.60;6.03;;;13.50;99.90;;;;;;6134984;23;20010;-74
2023/03/20 11:43:44;;;;;;;10.63;6.28;;;13.40;99.90;;;;;;6134180;23;20326;-74
2023/03/20 11:46:12;;;;;;;11.07;6.30;;;13.50;99.90;;;;;;6133704;23;20010;-74
2023/03/20 11:48:44;;;;;;;12.48;7.18;;;13.30;99.90;;;;;;6131148;23;20017;-73
2023/03/20 11:51:18;;;;;;;10.13;6.50;;;13.30;99.90;;;;;;6109886;23;20044;-75
2023/03/20 11:53:47;;;;;;;13.73;5.80;;;13.40;99.90;;;;;;6134046;23;20032;-74
2023/03/20 11:56:19;;;;;;;13.95;6.40;;;13.30;99.90;;;;;;6133620;23;20721;-73
2023/03/20 11:58:48;;;;;;;8.82;5.13;;;13.00;99.90;;;;;;6159256;23;20017;-73
2023/03/20 12:01:14;;;;;;;9.68;4.63;;;13.40;99.90;;;;;;6134677;23;20040;-73
2023/03/20 12:03:57;;;;;;;11.20;5.80;;;13.40;99.90;;;;;;6159205;23;20017;-72
2023/03/20 12:06:36;;;;;;;10.45;5.22;;;13.20;99.90;;;;;;6134002;23;20061;-73
2023/03/20 12:09:08;;;;;;;11.38;4.90;;;13.30;99.90;;;;;;6135562;23;20040;-73
2023/03/20 12:11:45;;;;;;;12.18;5.60;;;13.20;99.90;;;;;;6185205;23;20010;-74
2023/03/20 12:14:20;;;;;;;8.25;4.97;;;13.10;99.90;;;;;;6136898;23;20021;-74
2023/03/20 12:16:50;;;;;;;9.35;5.40;;;12.90;99.90;;;;;;6134612;23;20513;-72
2023/03/20 12:19:22;;;;;;;8.82;5.20;;;12.80;99.90;;;;;;6136237;23;20064;-73
2023/03/20 12:21:58;;;;;;;9.48;4.85;;;12.70;99.90;;;;;;6110718;23;20267;-74
2023/03/20 12:24:35;;;;;;;9.88;5.18;;;12.90;99.90;;;;;;6111774;23;20321;-74
2023/03/20 12:27:22;;;;;;;8.45;4.43;;;12.80;99.90;;;;;;6183919;23;20017;-77
2023/03/20 12:29:59;;;;;;;8.07;4.20;;;12.60;99.90;;;;;;6133205;23;20013;-72
2023/03/20 12:32:37;;;;;;;7.18;3.97;;;12.60;99.90;;;;;;6133480;23;20021;-73
2023/03/20 12:35:21;;;;;;;7.00;4.05;;;12.70;99.90;;;;;;6136562;23;20023;-73
2023/03/20 12:37:47;;;;;;;7.28;4.35;;;12.50;99.90;;;;;;6135077;23;20013;-71
2023/03/20 12:40:16;;;;;;;8.75;5.45;;;12.60;99.90;;;;;;6160564;23;20013;-74
2023/03/20 12:42:52;;;;;;;7.07;4.85;;;12.40;99.90;;;;;;6159133;23;20339;-75
2023/03/20 12:45:26;;;;;;;9.45;4.53;;;12.50;99.90;;;;;;6184496;23;20012;-73
2023/03/20 12:48:09;;;;;;;9.83;5.00;;;12.50;99.90;;;;;;6134895;23;20300;-73
2023/03/20 12:50:58;;;;;;;7.55;4.35;;;12.40;99.90;;;;;;6133578;23;20021;-73
2023/03/20 12:53:43;;;;;;;8.30;3.58;;;12.30;99.90;;;;;;6133322;23;20108;-73
2023/03/20 12:56:48;;;;;;;6.60;2.95;;;12.30;99.90;;;;;;6157710;23;20021;-73
2023/03/20 12:59:28;;;;;;;5.90;2.97;;;12.30;99.90;;;;;;6180843;23;20262;-72